createdAt,value
2019-05-22T00:01:14.542Z,11.48
2019-05-22T00:03:51.352Z,11.49
2019-05-22T00:06:19.075Z,11.44
2019-05-22T00:08:46.981Z,11.47
2019-05-22T00:11:13.505Z,11.47
2019-05-22T00:13:40.000Z,11.48
2019-05-22T00:16:07.012Z,11.43
2019-05-22T00:18:32.823Z,11.41
2019-05-22T00:21:00.809Z,11.35
2019-05-22T00:23:26.604Z,11.37
2019-05-22T00:25:53.821Z,11.29
2019-05-22T00:28:19.839Z,11.29
2019-05-22T00:30:47.853Z,11.27
2019-05-22T00:33:14.160Z,11.20
2019-05-22T00:35:41.476Z,11.23
2019-05-22T00:38:08.904Z,11.14
2019-05-22T00:40:36.727Z,11.13
2019-05-22T00:43:05.494Z,11.18
2019-05-22T00:45:30.550Z,11.24
2019-05-22T00:47:56.967Z,11.24
2019-05-22T00:50:29.136Z,11.12
2019-05-22T00:53:08.847Z,11.04
2019-05-22T00:55:46.398Z,11.08
2019-05-22T00:58:16.903Z,11.02
2019-05-22T01:00:44.595Z,10.97
2019-05-22T01:03:12.595Z,10.97
2019-05-22T01:05:41.799Z,10.98
2019-05-22T01:08:07.701Z,10.98
2019-05-22T01:10:34.485Z,10.92
2019-05-22T01:13:02.398Z,11.00
2019-05-22T01:15:30.985Z,10.99
2019-05-22T01:17:57.205Z,11.03
2019-05-22T01:20:25.197Z,11.06
2019-05-22T01:22:53.404Z,10.92
2019-05-22T01:25:23.457Z,10.96
2019-05-22T01:27:49.454Z,10.94
2019-05-22T01:30:18.153Z,10.88
2019-05-22T01:32:51.197Z,10.93
2019-05-22T01:35:19.023Z,10.91
2019-05-22T01:37:45.615Z,10.94
2019-05-22T01:40:19.463Z,10.85
2019-05-22T01:42:47.353Z,10.84
2019-05-22T01:45:15.261Z,10.87
2019-05-22T01:47:49.492Z,10.79
2019-05-22T01:50:23.995Z,10.84
2019-05-22T01:52:51.123Z,10.84
2019-05-22T01:55:18.802Z,10.84
2019-05-22T01:57:44.595Z,10.86
2019-05-22T02:00:12.687Z,10.88
2019-05-22T02:02:40.384Z,10.85
2019-05-22T02:05:08.789Z,10.85
2019-05-22T02:07:34.578Z,10.82
2019-05-22T02:10:01.308Z,10.84
2019-05-22T02:12:30.899Z,10.84
2019-05-22T02:14:57.202Z,10.81
2019-05-22T02:17:27.111Z,10.79
2019-05-22T02:19:53.712Z,10.80
2019-05-22T02:22:19.709Z,10.89
2019-05-22T02:24:48.199Z,10.89
2019-05-22T02:27:15.687Z,10.82
2019-05-22T02:29:42.595Z,10.81
2019-05-22T02:32:10.271Z,10.84
2019-05-22T02:34:36.480Z,10.73
2019-05-22T02:37:02.269Z,10.76
2019-05-22T02:39:29.765Z,10.70
2019-05-22T02:42:00.779Z,10.77
2019-05-22T02:44:27.978Z,10.78
2019-05-22T02:46:55.869Z,10.83
2019-05-22T02:49:22.363Z,10.73
2019-05-22T02:51:49.871Z,10.72
2019-05-22T02:54:16.242Z,10.75
2019-05-22T02:56:42.148Z,10.77
2019-05-22T02:59:09.233Z,10.77
2019-05-22T03:01:36.454Z,10.71
2019-05-22T03:04:04.554Z,10.77
2019-05-22T03:06:30.351Z,10.73
2019-05-22T03:09:00.249Z,10.66
2019-05-22T03:11:29.855Z,10.70
2019-05-22T03:13:59.808Z,10.73
2019-05-22T03:16:29.474Z,10.79
2019-05-22T03:19:08.506Z,10.76
2019-05-22T03:21:25.699Z,10.75
2019-05-22T03:23:52.576Z,10.76
2019-05-22T03:26:20.881Z,10.73
2019-05-22T03:28:47.281Z,10.85
2019-05-22T03:31:15.644Z,10.76
2019-05-22T03:33:42.186Z,10.76
2019-05-22T03:36:10.923Z,10.74
2019-05-22T03:38:40.913Z,10.80
2019-05-22T03:41:08.817Z,10.78
2019-05-22T03:43:35.457Z,10.78
2019-05-22T03:46:18.775Z,10.73
2019-05-22T03:48:45.830Z,10.71
2019-05-22T03:51:13.941Z,10.72
2019-05-22T03:53:40.222Z,10.67
2019-05-22T03:56:06.634Z,10.77
2019-05-22T03:58:32.723Z,10.78
2019-05-22T04:01:00.630Z,10.75
2019-05-22T04:03:26.921Z,10.75
2019-05-22T04:05:53.243Z,10.76
2019-05-22T04:08:21.246Z,10.79
2019-05-22T04:11:04.572Z,10.80
2019-05-22T04:13:31.366Z,10.76
2019-05-22T04:15:57.662Z,10.80
2019-05-22T04:18:25.453Z,10.87
2019-05-22T04:20:52.736Z,10.75
2019-05-22T04:23:18.729Z,10.71
2019-05-22T04:25:44.506Z,10.66
2019-05-22T04:28:10.701Z,10.68
2019-05-22T04:30:37.500Z,10.76
2019-05-22T04:33:04.107Z,10.69
2019-05-22T04:35:31.704Z,10.66
2019-05-22T04:37:57.995Z,10.61
2019-05-22T04:40:28.486Z,10.59
2019-05-22T04:42:55.194Z,10.59
2019-05-22T04:45:23.393Z,10.64
2019-05-22T04:47:55.001Z,10.61
2019-05-22T04:50:21.003Z,10.72
2019-05-22T04:52:47.699Z,10.73
2019-05-22T04:55:13.894Z,10.62
2019-05-22T04:57:40.288Z,10.65
2019-05-22T05:00:08.170Z,10.62
2019-05-22T05:02:34.375Z,10.55
2019-05-22T05:05:00.754Z,10.59
2019-05-22T05:07:27.543Z,10.65
2019-05-22T05:09:53.628Z,10.67
2019-05-22T05:12:19.735Z,10.66
2019-05-22T05:14:45.825Z,10.61
2019-05-22T05:17:13.532Z,10.56
2019-05-22T05:19:39.626Z,10.62
2019-05-22T05:22:05.440Z,10.67
2019-05-22T05:24:31.208Z,10.69
2019-05-22T05:26:57.787Z,10.67
2019-05-22T05:29:24.676Z,10.69
2019-05-22T05:31:51.469Z,10.74
2019-05-22T05:34:30.229Z,10.64
2019-05-22T05:36:56.510Z,10.62
2019-05-22T05:39:35.132Z,10.65
2019-05-22T05:42:00.939Z,10.64
2019-05-22T05:44:27.430Z,10.67
2019-05-22T05:46:53.411Z,10.64
2019-05-22T05:49:19.214Z,10.69
2019-05-22T05:51:45.795Z,10.69
2019-05-22T05:54:12.099Z,10.59
2019-05-22T05:56:38.491Z,10.63
2019-05-22T05:59:05.806Z,10.68
2019-05-22T06:01:39.542Z,10.59
2019-05-22T06:04:05.632Z,10.59
2019-05-22T06:06:35.516Z,10.61
2019-05-22T06:09:03.223Z,10.65
2019-05-22T06:11:32.820Z,10.63
2019-05-22T06:13:59.526Z,10.68
2019-05-22T06:16:50.339Z,10.70
2019-05-22T06:19:16.851Z,10.74
2019-05-22T06:21:47.859Z,10.60
2019-05-22T06:24:36.091Z,10.64
2019-05-22T06:27:06.170Z,10.63
2019-05-22T06:29:56.797Z,10.71
2019-05-22T06:32:38.516Z,10.76
2019-05-22T06:35:06.916Z,10.84
2019-05-22T06:37:45.355Z,10.83
2019-05-22T06:40:12.148Z,10.85
2019-05-22T06:42:41.738Z,10.75
2019-05-22T06:45:07.772Z,10.75
2019-05-22T06:47:33.735Z,10.80
2019-05-22T06:49:59.769Z,10.77
2019-05-22T06:52:25.837Z,10.77
2019-05-22T06:54:52.462Z,10.66
2019-05-22T06:57:20.772Z,10.77
2019-05-22T06:59:46.829Z,10.71
2019-05-22T07:02:13.218Z,10.69
2019-05-22T07:04:39.228Z,10.73
2019-05-22T07:07:05.459Z,10.75
2019-05-22T07:09:32.216Z,10.78
2019-05-22T07:11:58.138Z,10.76
2019-05-22T07:14:24.406Z,10.96
2019-05-22T07:16:50.402Z,10.96
2019-05-22T07:19:16.708Z,10.96
2019-05-22T07:21:42.921Z,10.88
2019-05-22T07:24:09.687Z,10.95
2019-05-22T07:26:36.611Z,10.87
2019-05-22T07:29:05.198Z,10.83
2019-05-22T07:31:30.894Z,10.76
2019-05-22T07:33:56.771Z,10.78
2019-05-22T07:36:22.877Z,10.71
2019-05-22T07:38:48.679Z,10.68
2019-05-22T07:41:14.783Z,10.63
2019-05-22T07:43:41.964Z,10.87
2019-05-22T07:46:08.164Z,10.80
2019-05-22T07:48:34.139Z,10.68
2019-05-22T07:51:00.532Z,10.69
2019-05-22T07:53:27.036Z,10.87
2019-05-22T07:55:53.918Z,10.83
2019-05-22T07:58:20.007Z,10.85
2019-05-22T08:00:50.208Z,10.77
2019-05-22T08:03:16.303Z,10.85
2019-05-22T08:05:46.813Z,10.86
2019-05-22T08:08:13.804Z,10.86
2019-05-22T08:10:39.622Z,10.77
2019-05-22T08:13:06.097Z,10.70
2019-05-22T08:15:32.287Z,10.82
2019-05-22T08:17:59.202Z,10.87
2019-05-22T08:20:25.188Z,10.80
2019-05-22T08:22:53.880Z,10.85
2019-05-22T08:25:20.174Z,10.81
2019-05-22T08:27:46.175Z,10.86
2019-05-22T08:30:12.058Z,10.81
2019-05-22T08:32:38.049Z,10.76
2019-05-22T08:35:08.476Z,10.79
2019-05-22T08:37:35.593Z,10.72
2019-05-22T08:40:03.039Z,10.74
2019-05-22T08:42:30.258Z,10.67
2019-05-22T08:44:56.050Z,10.71
2019-05-22T08:47:21.933Z,10.74
2019-05-22T08:49:48.527Z,10.76
2019-05-22T08:52:23.558Z,10.76
2019-05-22T08:54:44.606Z,10.65
2019-05-22T08:57:13.106Z,10.69
2019-05-22T08:59:38.895Z,10.65
2019-05-22T09:02:04.873Z,10.58
2019-05-22T09:04:30.766Z,10.58
2019-05-22T09:06:56.799Z,10.66
2019-05-22T09:09:23.995Z,10.61
2019-05-22T09:11:50.296Z,10.65
2019-05-22T09:14:16.159Z,10.82
2019-05-22T09:16:41.960Z,10.85
2019-05-22T09:19:08.078Z,10.82
2019-05-22T09:21:34.658Z,10.87
2019-05-22T09:24:01.467Z,10.84
2019-05-22T09:26:27.833Z,10.77
2019-05-22T09:28:53.637Z,10.69
2019-05-22T09:31:19.724Z,10.81
2019-05-22T09:33:46.031Z,10.98
2019-05-22T09:36:12.401Z,10.97
2019-05-22T09:38:38.484Z,10.85
2019-05-22T09:41:04.589Z,10.90
2019-05-22T09:43:30.775Z,11.01
2019-05-22T09:45:56.578Z,11.08
2019-05-22T09:48:22.870Z,11.05
2019-05-22T09:50:49.863Z,11.13
2019-05-22T09:53:15.754Z,11.12
2019-05-22T09:55:41.958Z,11.12
2019-05-22T09:58:07.939Z,11.17
2019-05-22T10:00:33.842Z,11.19
2019-05-22T10:02:59.832Z,11.39
2019-05-22T10:05:25.825Z,11.39
2019-05-22T10:08:00.276Z,11.38
2019-05-22T10:10:20.509Z,11.36
2019-05-22T10:12:46.627Z,11.29
2019-05-22T10:15:13.968Z,11.29
2019-05-22T10:17:46.857Z,11.41
2019-05-22T10:20:12.889Z,11.41
2019-05-22T10:22:39.554Z,11.50
2019-05-22T10:25:15.934Z,11.49
2019-05-22T10:27:33.473Z,11.47
2019-05-22T10:29:59.250Z,11.38
2019-05-22T10:32:31.576Z,11.47
2019-05-22T10:34:57.712Z,11.49
2019-05-22T10:37:23.331Z,11.49
2019-05-22T10:39:49.434Z,11.44
2019-05-22T10:42:15.539Z,11.43
2019-05-22T10:44:41.341Z,11.32
2019-05-22T10:47:07.156Z,11.32
2019-05-22T10:49:33.029Z,11.42
2019-05-22T10:51:58.822Z,11.44
2019-05-22T10:54:24.700Z,11.46
2019-05-22T10:56:50.499Z,11.58
2019-05-22T10:59:16.484Z,11.75
2019-05-22T11:01:42.383Z,11.69
2019-05-22T11:04:08.565Z,11.69
2019-05-22T11:06:34.465Z,11.57
2019-05-22T11:09:00.346Z,11.65
2019-05-22T11:11:26.651Z,11.72
2019-05-22T11:14:01.420Z,11.93
2019-05-22T11:16:21.326Z,12.13
2019-05-22T11:18:47.228Z,12.38
2019-05-22T11:21:13.207Z,12.52
2019-05-22T11:23:51.161Z,12.71
2019-05-22T11:26:07.333Z,12.38
2019-05-22T11:28:33.972Z,12.26
2019-05-22T11:31:00.872Z,12.33
2019-05-22T11:33:26.665Z,12.23
2019-05-22T11:35:52.444Z,12.31
2019-05-22T11:38:18.231Z,12.64
2019-05-22T11:40:44.022Z,12.80
2019-05-22T11:43:10.536Z,12.75
2019-05-22T11:45:36.583Z,12.65
2019-05-22T11:48:03.344Z,12.46
2019-05-22T11:50:30.579Z,12.55
2019-05-22T11:52:56.477Z,12.53
2019-05-22T11:55:22.659Z,12.39
2019-05-22T11:57:49.351Z,12.33
2019-05-22T12:00:17.826Z,12.35
2019-05-22T12:02:44.431Z,12.28
2019-05-22T12:05:10.816Z,12.31
2019-05-22T12:07:40.343Z,12.44
2019-05-22T12:10:07.225Z,12.27
2019-05-22T12:12:35.433Z,12.40
2019-05-22T12:15:01.120Z,12.91
2019-05-22T12:17:37.279Z,12.91
2019-05-22T12:19:55.292Z,12.68
2019-05-22T12:22:21.181Z,12.87
2019-05-22T12:24:47.062Z,12.97
2019-05-22T12:27:13.458Z,12.94
2019-05-22T12:29:40.840Z,12.87
2019-05-22T12:32:07.927Z,12.79
2019-05-22T12:34:33.761Z,12.72
2019-05-22T12:37:00.226Z,12.61
2019-05-22T12:39:26.619Z,12.80
2019-05-22T12:41:52.397Z,12.85
2019-05-22T12:44:18.189Z,12.77
2019-05-22T12:46:44.280Z,12.92
2019-05-22T12:49:12.982Z,12.77
2019-05-22T12:51:38.769Z,12.64
2019-05-22T12:54:05.082Z,12.69
2019-05-22T12:56:31.359Z,12.78
2019-05-22T12:58:57.254Z,13.13
2019-05-22T13:01:23.642Z,13.03
2019-05-22T13:03:51.132Z,13.02
2019-05-22T13:06:16.916Z,12.93
2019-05-22T13:08:43.402Z,12.93
2019-05-22T13:11:09.188Z,12.93
2019-05-22T13:13:35.088Z,12.97
2019-05-22T13:16:01.130Z,13.07
2019-05-22T13:18:28.284Z,13.19
2019-05-22T13:20:54.384Z,13.00
2019-05-22T13:23:22.777Z,13.03
2019-05-22T13:25:48.559Z,12.82
2019-05-22T13:28:15.574Z,12.66
2019-05-22T13:30:47.648Z,12.80
2019-05-22T13:33:14.427Z,13.20
2019-05-22T13:35:41.026Z,13.37
2019-05-22T13:38:07.004Z,13.42
2019-05-22T13:40:34.005Z,13.16
2019-05-22T13:43:00.084Z,13.10
2019-05-22T13:45:29.677Z,12.94
2019-05-22T13:47:54.374Z,13.13
2019-05-22T13:50:20.568Z,13.09
2019-05-22T13:52:46.850Z,12.97
2019-05-22T13:55:14.257Z,12.97
2019-05-22T13:57:41.255Z,13.13
2019-05-22T14:00:09.481Z,13.31
2019-05-22T14:02:35.239Z,13.39
2019-05-22T14:05:01.050Z,13.47
2019-05-22T14:07:28.078Z,13.80
2019-05-22T14:09:54.250Z,14.00
2019-05-22T14:12:20.376Z,13.89
2019-05-22T14:14:46.324Z,13.75
2019-05-22T14:17:13.033Z,13.57
2019-05-22T14:19:38.939Z,13.56
2019-05-22T14:22:05.015Z,14.06
2019-05-22T14:24:30.806Z,14.32
2019-05-22T14:26:56.689Z,14.40
2019-05-22T14:29:22.975Z,14.62
2019-05-22T14:31:49.269Z,14.83
2019-05-22T14:34:15.156Z,14.93
2019-05-22T14:36:41.148Z,15.16
2019-05-22T14:39:07.636Z,15.30
2019-05-22T14:41:33.441Z,15.12
2019-05-22T14:43:59.226Z,14.74
2019-05-22T14:46:25.018Z,14.71
2019-05-22T14:48:51.103Z,14.58
2019-05-22T14:51:16.999Z,14.45
2019-05-22T14:53:43.195Z,14.42
2019-05-22T14:56:10.961Z,14.27
2019-05-22T14:58:37.864Z,14.26
2019-05-22T15:01:04.401Z,14.36
2019-05-22T15:03:30.251Z,14.37
2019-05-22T15:05:56.245Z,14.34
2019-05-22T15:08:22.034Z,14.25
2019-05-22T15:10:48.331Z,14.16
2019-05-22T15:13:14.315Z,14.35
2019-05-22T15:15:40.937Z,14.24
2019-05-22T15:18:06.832Z,14.43
2019-05-22T15:20:34.445Z,14.45
2019-05-22T15:23:00.251Z,14.50
2019-05-22T15:25:26.134Z,14.31
2019-05-22T15:27:51.928Z,14.21
2019-05-22T15:30:18.314Z,14.29
2019-05-22T15:32:44.285Z,14.31
2019-05-22T15:35:10.367Z,14.26
2019-05-22T15:37:36.989Z,14.21
2019-05-22T15:40:05.085Z,14.14
2019-05-22T15:42:35.088Z,14.22
2019-05-22T15:45:02.270Z,14.38
2019-05-22T15:47:28.270Z,14.06
2019-05-22T15:49:54.943Z,13.99
2019-05-22T15:52:23.235Z,14.00
2019-05-22T15:54:49.711Z,14.06
2019-05-22T15:57:17.100Z,14.13
2019-05-22T15:59:42.980Z,14.11
2019-05-22T16:02:09.175Z,14.03
2019-05-22T16:04:35.529Z,13.95
2019-05-22T16:07:01.820Z,13.94
2019-05-22T16:09:27.700Z,14.18
2019-05-22T16:11:53.596Z,14.00
2019-05-22T16:14:20.180Z,14.05
2019-05-22T16:16:47.534Z,14.05
2019-05-22T16:19:13.755Z,13.95
2019-05-22T16:21:45.095Z,13.88
2019-05-22T16:24:12.615Z,13.67
2019-05-22T16:26:39.755Z,13.69
2019-05-22T16:29:06.351Z,13.56
2019-05-22T16:31:33.124Z,13.60
2019-05-22T16:33:59.714Z,13.72
2019-05-22T16:36:26.434Z,13.69
2019-05-22T16:38:52.829Z,13.68
2019-05-22T16:41:18.904Z,13.65
2019-05-22T16:43:49.601Z,13.88
2019-05-22T16:46:14.250Z,13.96
2019-05-22T16:48:41.581Z,13.83
2019-05-22T16:51:09.961Z,13.91
2019-05-22T16:53:37.243Z,13.73
2019-05-22T16:56:03.868Z,13.46
2019-05-22T16:58:30.700Z,13.27
2019-05-22T17:00:57.526Z,13.26
2019-05-22T17:03:25.761Z,13.19
2019-05-22T17:05:52.647Z,13.16
2019-05-22T17:08:19.996Z,13.10
2019-05-22T17:10:47.777Z,12.93
2019-05-22T17:13:14.985Z,12.90
2019-05-22T17:15:41.521Z,13.09
2019-05-22T17:18:08.740Z,13.19
2019-05-22T17:20:34.972Z,13.21
2019-05-22T17:23:00.830Z,13.15
2019-05-22T17:25:28.721Z,13.17
2019-05-22T17:27:55.178Z,12.97
2019-05-22T17:30:23.295Z,12.97
2019-05-22T17:32:49.790Z,12.90
2019-05-22T17:35:17.709Z,12.92
2019-05-22T17:37:43.831Z,12.81
2019-05-22T17:40:10.616Z,12.77
2019-05-22T17:42:37.365Z,12.75
2019-05-22T17:45:08.886Z,12.74
2019-05-22T17:47:35.327Z,12.59
2019-05-22T17:50:05.735Z,12.64
2019-05-22T17:52:32.125Z,12.57
2019-05-22T17:54:58.206Z,12.43
2019-05-22T17:57:24.535Z,12.35
2019-05-22T17:59:51.841Z,12.32
2019-05-22T18:02:19.640Z,12.35
2019-05-22T18:04:45.454Z,12.30
2019-05-22T18:07:11.725Z,12.18
2019-05-22T18:09:37.649Z,12.25
2019-05-22T18:12:05.324Z,12.35
2019-05-22T18:14:31.429Z,12.26
2019-05-22T18:16:57.225Z,12.17
2019-05-22T18:19:23.431Z,12.17
2019-05-22T18:21:49.322Z,12.09
2019-05-22T18:24:15.115Z,12.00
2019-05-22T18:26:40.995Z,12.09
2019-05-22T18:29:06.875Z,12.13
2019-05-22T18:31:32.874Z,12.07
2019-05-22T18:33:58.679Z,12.03
2019-05-22T18:36:24.501Z,12.09
2019-05-22T18:38:50.270Z,11.99
2019-05-22T18:41:16.056Z,12.12
2019-05-22T18:43:43.252Z,12.16
2019-05-22T18:46:09.145Z,11.97
2019-05-22T18:48:34.992Z,11.99
2019-05-22T18:51:01.094Z,11.99
2019-05-22T18:53:26.884Z,11.98
2019-05-22T18:55:52.791Z,11.89
2019-05-22T18:58:18.784Z,11.91
2019-05-22T19:00:45.007Z,11.83
2019-05-22T19:03:13.799Z,11.78
2019-05-22T19:05:40.494Z,11.78
2019-05-22T19:08:06.311Z,11.77
2019-05-22T19:10:32.708Z,11.79
2019-05-22T19:12:58.963Z,11.77
2019-05-22T19:15:25.075Z,11.78
2019-05-22T19:17:51.063Z,11.80
2019-05-22T19:20:17.379Z,11.79
2019-05-22T19:22:58.345Z,11.78
2019-05-22T19:25:11.689Z,11.63
2019-05-22T19:27:37.499Z,11.33
2019-05-22T19:30:03.994Z,11.33
2019-05-22T19:32:30.397Z,11.49
2019-05-22T19:34:56.201Z,11.44
2019-05-22T19:37:22.330Z,11.44
2019-05-22T19:39:48.136Z,11.36
2019-05-22T19:42:14.214Z,11.35
2019-05-22T19:44:40.187Z,11.35
2019-05-22T19:47:06.224Z,11.32
2019-05-22T19:49:32.368Z,11.32
2019-05-22T19:51:58.385Z,11.30
2019-05-22T19:54:24.253Z,11.22
2019-05-22T19:56:50.161Z,11.13
2019-05-22T19:59:17.068Z,11.06
2019-05-22T20:01:43.143Z,10.97
2019-05-22T20:04:09.822Z,10.87
2019-05-22T20:06:38.440Z,10.80
2019-05-22T20:09:06.887Z,10.79
2019-05-22T20:11:33.194Z,10.73
2019-05-22T20:13:59.276Z,10.72
2019-05-22T20:16:25.267Z,10.62
2019-05-22T20:18:51.189Z,10.59
2019-05-22T20:21:16.990Z,10.50
2019-05-22T20:23:42.763Z,10.45
2019-05-22T20:26:11.955Z,10.42
2019-05-22T20:28:38.652Z,10.36
2019-05-22T20:31:04.665Z,10.44
2019-05-22T20:33:31.164Z,10.31
2019-05-22T20:35:57.051Z,10.27
2019-05-22T20:38:24.751Z,10.27
2019-05-22T20:40:50.946Z,10.16
2019-05-22T20:43:16.762Z,10.10
2019-05-22T20:45:44.441Z,10.14
2019-05-22T20:48:18.644Z,9.98
2019-05-22T20:50:45.424Z,9.98
2019-05-22T20:53:12.730Z,9.85
2019-05-22T20:55:39.464Z,9.82
2019-05-22T20:58:05.477Z,9.91
2019-05-22T21:00:33.016Z,9.79
2019-05-22T21:03:01.632Z,9.79
2019-05-22T21:05:27.418Z,9.79
2019-05-22T21:07:57.965Z,9.73
2019-05-22T21:10:24.648Z,9.62
2019-05-22T21:12:52.727Z,9.62
2019-05-22T21:15:19.996Z,9.51
2019-05-22T21:17:46.592Z,9.39
2019-05-22T21:20:14.499Z,9.39
2019-05-22T21:22:40.409Z,9.31
2019-05-22T21:25:06.391Z,9.31
2019-05-22T21:27:32.580Z,9.29
2019-05-22T21:29:58.772Z,9.24
2019-05-22T21:32:25.507Z,9.20
2019-05-22T21:34:51.404Z,9.02
2019-05-22T21:37:17.999Z,8.96
2019-05-22T21:39:44.499Z,8.96
2019-05-22T21:42:11.105Z,8.89
2019-05-22T21:44:36.915Z,8.82
2019-05-22T21:47:04.692Z,8.82
2019-05-22T21:49:30.593Z,8.78
2019-05-22T21:51:56.376Z,8.71
2019-05-22T21:54:22.265Z,8.65
2019-05-22T21:56:48.447Z,8.60
2019-05-22T21:59:14.659Z,8.51
2019-05-22T22:01:45.103Z,8.51
2019-05-22T22:04:12.917Z,8.35
2019-05-22T22:06:39.304Z,8.35
2019-05-22T22:09:06.918Z,8.33
2019-05-22T22:11:33.902Z,8.33
2019-05-22T22:14:00.711Z,8.32
2019-05-22T22:16:27.620Z,8.32
2019-05-22T22:18:54.412Z,8.31
2019-05-22T22:21:20.795Z,8.36
2019-05-22T22:23:46.939Z,8.35
2019-05-22T22:26:24.742Z,8.32
2019-05-22T22:28:41.275Z,8.34
2019-05-22T22:31:12.024Z,8.28
2019-05-22T22:33:38.996Z,8.29
2019-05-22T22:36:05.373Z,8.29
2019-05-22T22:38:32.190Z,8.23
2019-05-22T22:40:58.476Z,8.17
2019-05-22T22:43:27.458Z,8.12
2019-05-22T22:45:56.449Z,8.05
2019-05-22T22:48:32.034Z,8.01
2019-05-22T22:50:56.898Z,7.94
2019-05-22T22:53:23.285Z,7.91
2019-05-22T22:55:49.479Z,7.78
2019-05-22T22:58:17.821Z,7.74
2019-05-22T23:00:45.368Z,7.71
2019-05-22T23:03:14.260Z,7.70
2019-05-22T23:05:41.662Z,7.64
2019-05-22T23:08:09.747Z,7.64
2019-05-22T23:10:36.270Z,7.56
2019-05-22T23:13:03.736Z,7.56
2019-05-22T23:15:29.521Z,7.44
2019-05-22T23:17:55.295Z,7.44
2019-05-22T23:20:21.183Z,7.41
2019-05-22T23:22:47.127Z,7.51
2019-05-22T23:25:15.424Z,7.54
2019-05-22T23:27:42.225Z,7.44
2019-05-22T23:30:10.370Z,7.35
2019-05-22T23:32:37.073Z,7.28
2019-05-22T23:35:04.596Z,7.28
2019-05-22T23:37:30.723Z,7.28
2019-05-22T23:39:57.391Z,7.31
2019-05-22T23:42:28.893Z,7.35
2019-05-22T23:44:55.240Z,7.42
2019-05-22T23:47:21.304Z,7.47
2019-05-22T23:49:49.780Z,7.47
2019-05-22T23:52:17.150Z,7.53
2019-05-22T23:54:43.998Z,7.53
2019-05-22T23:57:10.275Z,7.48
2019-05-22T23:59:38.801Z,7.47
